Catàleg de serveis del Meteocat
Campanya meteocatpedra

Dades de l'estació automàtica Camarasa

?
?
Resum diari 21:30 TU
Dades diàries de l'estació meteorològica
Temperatura mitjana 19.0 °C
Temperatura màxima 25.7 °C 14:45 TU
Temperatura mínima 14.6 °C 6:16 TU
Humitat relativa mitjana 76%
Precipitació acumulada 4.9 mm
Ratxa màxima del vent (2 m) 23.4 km/h - 82º 0:15 TU
Irradiació solar global 17.4 MJ/m2

El tram horari està expressat en Temps Universal (TU). Cal sumar una hora en horari d'hivern i dues en horari d'estiu per passar a l'hora oficial.

Camarasa

Metadades estació meteorol´gica
Municipi Camarasa
Comarca Noguera
Altitud 668 m
Data alta 07.03.2006
Estat actual Operativa
Dades de període
Període
TU
TM
°C
TX
°C
TN
°C
HRM
%
PPT
mm
VVM (2 m)
km/h
DVM (2 m)
graus
VVX (2 m)
km/h
RS
W/m2
00:00 - 00:30 17.3 17.4 17.3 86 0.0 9.0 89 23.4 0
00:30 - 01:00 17.2 17.4 17.1 87 0.0 7.6 88 19.8 0
01:00 - 01:30 17.5 17.5 17.2 86 0.0 7.2 91 16.2 0
01:30 - 02:00 17.4 17.5 17.2 86 0.0 6.1 98 14.4 0
02:00 - 02:30 17.1 17.2 17.0 87 0.0 6.5 127 13.0 0
02:30 - 03:00 17.0 17.1 16.8 88 0.0 6.1 131 12.6 0
03:00 - 03:30 16.9 17.0 16.8 89 0.0 5.8 117 12.6 0
03:30 - 04:00 16.8 17.0 16.6 90 0.0 5.4 115 14.8 0
04:00 - 04:30 16.5 16.6 16.4 91 0.0 6.8 97 16.9 0
04:30 - 05:00 16.4 16.6 16.3 89 0.0 8.6 89 18.7 0
05:00 - 05:30 16.7 16.7 16.6 83 0.0 7.6 81 19.8 0
05:30 - 06:00 17.1 17.4 16.7 75 0.0 5.4 97 14.0 0
06:00 - 06:30 15.3 17.4 14.6 92 4.5 9.4 91 22.0 3
06:30 - 07:00 15.3 15.5 14.9 95 0.1 7.2 84 15.8 9
07:00 - 07:30 15.4 15.5 15.3 95 0.3 5.8 98 11.5 20
07:30 - 08:00 15.5 15.6 15.4 94 0.0 4.0 88 11.9 21
08:00 - 08:30 15.6 15.7 15.4 94 0.0 2.5 2 6.8 24
08:30 - 09:00 15.6 16.0 15.5 95 0.0 2.2 273 4.3 86
09:00 - 09:30 17.9 19.6 16.0 88 0.0 2.9 64 11.2 544
09:30 - 10:00 19.5 20.1 19.0 83 0.0 7.9 98 17.6 628
10:00 - 10:30 21.0 21.4 20.1 74 0.0 7.6 96 19.4 722
10:30 - 11:00 21.5 22.0 21.0 66 0.0 7.9 107 17.6 761
11:00 - 11:30 21.8 22.1 21.6 62 0.0 9.0 109 19.4 788
11:30 - 12:00 22.7 23.2 22.1 59 0.0 6.8 102 16.2 794
12:00 - 12:30 22.8 24.2 22.2 58 0.0 5.4 103 14.0 793
12:30 - 13:00 23.6 23.9 23.3 55 0.0 5.0 126 13.3 772
13:00 - 13:30 24.0 24.7 23.3 51 0.0 5.0 146 13.7 734
13:30 - 14:00 24.6 25.4 23.6 46 0.0 3.6 135 11.9 653
14:00 - 14:30 24.8 25.4 23.6 45 0.0 4.3 264 11.5 532
14:30 - 15:00 25.2 25.7 24.5 42 0.0 5.8 161 15.1 608
15:00 - 15:30 24.4 24.9 24.0 46 0.0 7.2 140 14.8 445
15:30 - 16:00 23.0 24.1 22.4 58 0.0 7.6 106 16.2 388
16:00 - 16:30 21.8 22.4 20.9 65 0.0 6.5 112 17.6 231
16:30 - 17:00 20.5 21.0 20.0 68 0.0 5.4 108 12.6 78
17:00 - 17:30 19.8 20.0 19.6 68 0.0 5.8 114 13.7 52
17:30 - 18:00 19.2 19.6 18.9 70 0.0 4.7 115 10.4 13
18:00 - 18:30 18.7 18.9 18.5 75 0.0 5.4 113 12.6 0
18:30 - 19:00 18.2 18.5 18.0 80 0.0 4.7 113 9.7 0
19:00 - 19:30 17.9 18.0 17.9 84 0.0 4.7 112 11.2 0
19:30 - 20:00 17.8 17.9 17.8 85 0.0 5.4 114 11.9 0
20:00 - 20:30 17.6 17.8 17.5 85 0.0 6.8 106 18.4 0
20:30 - 21:00 17.8 17.9 17.7 82 0.0 6.8 97 17.6 0
21:00 - 21:30 17.7 17.9 17.4 82 0.0 7.2 97 14.8 0
21:30 - 22:00 17.5 17.5 17.4 85 0.0 6.8 100 15.5 0

Les dades en taronja només han passat un control de qualitat automàtic. Resta pendent la seva validació definitiva.